Terminal Aerodrome Forecast
Issued by NWS

Home | Current Version | Previous Version | Text Only | Print | Product List | Glossary On
Versions: 1 2 3 4 5 6 7 8 9 10 11 12 13 14 15 16 17 18 19
000
FTAK31 PAJN 192300
TAFAJN
TAF
PAJN 192337Z 2000/2024 09003KT P6SM VCSH FEW004 BKN035 OVC070
     FM200300 08012G18KT P6SM BKN050 BKN100
     FM200600 08010G15KT P6SM VCSH BKN050 OVC080
     FM201000 10010KT 5SM -RASN SCT010 BKN030 OVC070
     FM201500 10010KT 6SM -RA SCT010 BKN040 OVC070=

USA.gov is the U.S. government's official web portal to all federal, state and local government web resources and services.